sensor_id;sensor_type;location;lat;lon;timestamp;P1;durP1;ratioP1;P2;durP2;ratioP2
52342;SDS011;38277;51.972;4.624;2023-02-22T00:00:06;51.1;;;26.5;;
52342;SDS011;38277;51.972;4.624;2023-02-22T00:04:20;50.8;;;27.7;;
52342;SDS011;38277;51.972;4.624;2023-02-22T00:08:54;49.7;;;28.6;;
52342;SDS011;38277;51.972;4.624;2023-02-22T00:13:38;49.0;;;24.6;;
52342;SDS011;38277;51.972;4.624;2023-02-22T00:17:53;48.2;;;26.4;;
52342;SDS011;38277;51.972;4.624;2023-02-22T00:22:15;49.6;;;27.4;;
52342;SDS011;38277;51.972;4.624;2023-02-22T00:26:55;45.7;;;23.5;;
52342;SDS011;38277;51.972;4.624;2023-02-22T00:31:23;45.7;;;25.0;;
52342;SDS011;38277;51.972;4.624;2023-02-22T00:36:04;49.8;;;26.6;;
52342;SDS011;38277;51.972;4.624;2023-02-22T00:40:30;51.7;;;26.0;;
52342;SDS011;38277;51.972;4.624;2023-02-22T00:44:48;53.8;;;27.2;;
52342;SDS011;38277;51.972;4.624;2023-02-22T00:49:35;53.3;;;27.4;;
52342;SDS011;38277;51.972;4.624;2023-02-22T00:54:08;49.7;;;25.6;;
52342;SDS011;38277;51.972;4.624;2023-02-22T00:58:19;48.3;;;25.2;;
52342;SDS011;38277;51.972;4.624;2023-02-22T01:02:51;52.5;;;27.0;;
52342;SDS011;38277;51.972;4.624;2023-02-22T01:07:29;49.2;;;24.9;;
52342;SDS011;38277;51.972;4.624;2023-02-22T01:11:44;50.7;;;27.3;;
52342;SDS011;38277;51.972;4.624;2023-02-22T01:16:29;48.0;;;26.1;;
52342;SDS011;38277;51.972;4.624;2023-02-22T01:20:47;52.8;;;27.5;;
52342;SDS011;38277;51.972;4.624;2023-02-22T01:25:20;56.0;;;28.5;;
52342;SDS011;38277;51.972;4.624;2023-02-22T01:29:47;55.1;;;29.5;;
52342;SDS011;38277;51.972;4.624;2023-02-22T01:38:44;51.0;;;27.3;;
52342;SDS011;38277;51.972;4.624;2023-02-22T01:43:21;57.4;;;30.6;;
52342;SDS011;38277;51.972;4.624;2023-02-22T01:47:51;57.9;;;30.4;;
52342;SDS011;38277;51.972;4.624;2023-02-22T01:52:30;55.2;;;29.4;;
52342;SDS011;38277;51.972;4.624;2023-02-22T02:01:30;62.5;;;33.1;;
52342;SDS011;38277;51.972;4.624;2023-02-22T02:06:10;55.9;;;29.3;;
52342;SDS011;38277;51.972;4.624;2023-02-22T02:11:06;57.4;;;30.5;;
52342;SDS011;38277;51.972;4.624;2023-02-22T02:16:02;58.9;;;31.5;;
52342;SDS011;38277;51.972;4.624;2023-02-22T02:21:25;62.2;;;32.8;;
52342;SDS011;38277;51.972;4.624;2023-02-22T02:31:25;53.2;;;28.0;;
52342;SDS011;38277;51.972;4.624;2023-02-22T02:35:53;53.3;;;28.6;;
52342;SDS011;38277;51.972;4.624;2023-02-22T02:40:46;57.0;;;30.6;;
52342;SDS011;38277;51.972;4.624;2023-02-22T02:44:52;54.9;;;31.0;;
52342;SDS011;38277;51.972;4.624;2023-02-22T02:47:57;53.8;;;28.9;;
52342;SDS011;38277;51.972;4.624;2023-02-22T02:55:25;49.1;;;25.9;;
52342;SDS011;38277;51.972;4.624;2023-02-22T03:01:47;54.5;;;29.4;;
52342;SDS011;38277;51.972;4.624;2023-02-22T03:05:24;54.4;;;28.1;;
52342;SDS011;38277;51.972;4.624;2023-02-22T03:10:26;59.6;;;30.7;;
52342;SDS011;38277;51.972;4.624;2023-02-22T03:15:17;54.1;;;29.0;;
52342;SDS011;38277;51.972;4.624;2023-02-22T03:20:11;53.2;;;28.7;;
52342;SDS011;38277;51.972;4.624;2023-02-22T03:22:25;54.2;;;27.7;;
52342;SDS011;38277;51.972;4.624;2023-02-22T03:26:57;61.9;;;31.7;;
52342;SDS011;38277;51.972;4.624;2023-02-22T03:31:23;61.4;;;33.5;;
52342;SDS011;38277;51.972;4.624;2023-02-22T03:35:48;58.4;;;29.5;;
52342;SDS011;38277;51.972;4.624;2023-02-22T03:40:14;58.0;;;28.9;;
52342;SDS011;38277;51.972;4.624;2023-02-22T03:44:54;60.5;;;30.9;;
52342;SDS011;38277;51.972;4.624;2023-02-22T03:49:41;64.7;;;31.5;;
52342;SDS011;38277;51.972;4.624;2023-02-22T03:53:59;64.5;;;31.9;;
52342;SDS011;38277;51.972;4.624;2023-02-22T04:03:08;61.6;;;30.1;;
52342;SDS011;38277;51.972;4.624;2023-02-22T04:07:18;66.9;;;32.9;;
52342;SDS011;38277;51.972;4.624;2023-02-22T04:11:58;70.0;;;33.5;;
52342;SDS011;38277;51.972;4.624;2023-02-22T04:16:34;66.2;;;30.8;;
52342;SDS011;38277;51.972;4.624;2023-02-22T04:21:03;60.8;;;30.1;;
52342;SDS011;38277;51.972;4.624;2023-02-22T04:25:24;56.4;;;29.6;;
52342;SDS011;38277;51.972;4.624;2023-02-22T04:29:42;66.8;;;33.5;;
52342;SDS011;38277;51.972;4.624;2023-02-22T04:39:07;65.1;;;29.0;;
52342;SDS011;38277;51.972;4.624;2023-02-22T04:43:21;65.2;;;25.7;;
52342;SDS011;38277;51.972;4.624;2023-02-22T04:47:53;57.7;;;26.6;;
52342;SDS011;38277;51.972;4.624;2023-02-22T04:52:11;50.4;;;23.1;;
52342;SDS011;38277;51.972;4.624;2023-02-22T04:56:50;43.3;;;22.9;;
52342;SDS011;38277;51.972;4.624;2023-02-22T05:01:16;42.5;;;20.8;;
52342;SDS011;38277;51.972;4.624;2023-02-22T05:05:57;38.9;;;19.3;;
52342;SDS011;38277;51.972;4.624;2023-02-22T05:10:31;36.4;;;18.8;;
52342;SDS011;38277;51.972;4.624;2023-02-22T05:14:50;43.9;;;23.5;;
52342;SDS011;38277;51.972;4.624;2023-02-22T05:19:13;42.1;;;21.5;;
52342;SDS011;38277;51.972;4.624;2023-02-22T05:24:10;38.4;;;20.8;;
52342;SDS011;38277;51.972;4.624;2023-02-22T05:28:33;42.2;;;21.6;;
52342;SDS011;38277;51.972;4.624;2023-02-22T05:33:10;43.3;;;20.6;;
52342;SDS011;38277;51.972;4.624;2023-02-22T05:37:37;41.7;;;21.8;;
52342;SDS011;38277;51.972;4.624;2023-02-22T05:42:06;42.2;;;20.5;;
52342;SDS011;38277;51.972;4.624;2023-02-22T05:46:35;38.5;;;20.9;;
52342;SDS011;38277;51.972;4.624;2023-02-22T05:50:49;40.3;;;20.8;;
52342;SDS011;38277;51.972;4.624;2023-02-22T05:55:24;43.6;;;20.0;;
52342;SDS011;38277;51.972;4.624;2023-02-22T05:59:43;50.6;;;23.6;;
52342;SDS011;38277;51.972;4.624;2023-02-22T06:04:31;41.5;;;21.4;;
52342;SDS011;38277;51.972;4.624;2023-02-22T06:13:11;43.1;;;22.8;;
52342;SDS011;38277;51.972;4.624;2023-02-22T06:18:09;41.8;;;21.8;;
52342;SDS011;38277;51.972;4.624;2023-02-22T06:22:40;36.2;;;19.0;;
52342;SDS011;38277;51.972;4.624;2023-02-22T06:27:11;36.3;;;19.3;;
52342;SDS011;38277;51.972;4.624;2023-02-22T06:31:21;32.4;;;17.8;;
52342;SDS011;38277;51.972;4.624;2023-02-22T06:36:06;31.4;;;17.0;;
52342;SDS011;38277;51.972;4.624;2023-02-22T06:40:29;32.3;;;17.3;;
52342;SDS011;38277;51.972;4.624;2023-02-22T06:49:35;34.7;;;18.8;;
52342;SDS011;38277;51.972;4.624;2023-02-22T06:53:55;36.2;;;19.1;;
52342;SDS011;38277;51.972;4.624;2023-02-22T06:58:27;37.1;;;20.0;;
52342;SDS011;38277;51.972;4.624;2023-02-22T07:03:06;35.8;;;19.3;;
52342;SDS011;38277;51.972;4.624;2023-02-22T07:07:36;38.3;;;19.3;;
52342;SDS011;38277;51.972;4.624;2023-02-22T07:11:46;32.4;;;17.6;;
52342;SDS011;38277;51.972;4.624;2023-02-22T07:16:39;40.1;;;20.6;;
52342;SDS011;38277;51.972;4.624;2023-02-22T07:20:44;37.5;;;19.3;;
52342;SDS011;38277;51.972;4.624;2023-02-22T07:25:37;38.8;;;20.6;;
52342;SDS011;38277;51.972;4.624;2023-02-22T07:29:43;42.7;;;21.5;;
52342;SDS011;38277;51.972;4.624;2023-02-22T07:34:19;33.2;;;18.1;;
52342;SDS011;38277;51.972;4.624;2023-02-22T07:39:03;38.2;;;19.7;;
52342;SDS011;38277;51.972;4.624;2023-02-22T07:47:50;35.7;;;19.4;;
52342;SDS011;38277;51.972;4.624;2023-02-22T07:52:36;34.1;;;18.8;;
52342;SDS011;38277;51.972;4.624;2023-02-22T07:57:01;36.6;;;19.4;;
52342;SDS011;38277;51.972;4.624;2023-02-22T08:01:35;38.7;;;20.0;;
52342;SDS011;38277;51.972;4.624;2023-02-22T08:06:09;37.4;;;20.5;;
52342;SDS011;38277;51.972;4.624;2023-02-22T08:10:42;37.3;;;21.0;;
52342;SDS011;38277;51.972;4.624;2023-02-22T08:24:10;36.8;;;20.3;;
52342;SDS011;38277;51.972;4.624;2023-02-22T08:28:30;33.6;;;17.6;;
52342;SDS011;38277;51.972;4.624;2023-02-22T08:32:48;34.4;;;18.9;;
52342;SDS011;38277;51.972;4.624;2023-02-22T08:37:40;35.5;;;18.5;;
52342;SDS011;38277;51.972;4.624;2023-02-22T08:41:54;34.7;;;19.1;;
52342;SDS011;38277;51.972;4.624;2023-02-22T08:46:31;33.1;;;18.0;;
52342;SDS011;38277;51.972;4.624;2023-02-22T08:50:58;33.9;;;18.9;;
52342;SDS011;38277;51.972;4.624;2023-02-22T08:55:35;38.0;;;20.1;;
52342;SDS011;38277;51.972;4.624;2023-02-22T09:00:08;33.4;;;19.1;;
52342;SDS011;38277;51.972;4.624;2023-02-22T09:04:15;30.6;;;16.3;;
52342;SDS011;38277;51.972;4.624;2023-02-22T09:09:06;33.8;;;17.6;;
52342;SDS011;38277;51.972;4.624;2023-02-22T09:13:22;32.9;;;18.7;;
52342;SDS011;38277;51.972;4.624;2023-02-22T09:22:13;32.7;;;16.8;;
52342;SDS011;38277;51.972;4.624;2023-02-22T09:26:53;31.1;;;17.8;;
52342;SDS011;38277;51.972;4.624;2023-02-22T09:31:34;29.0;;;17.8;;
52342;SDS011;38277;51.972;4.624;2023-02-22T09:36:07;32.7;;;20.0;;
52342;SDS011;38277;51.972;4.624;2023-02-22T09:40:25;32.8;;;18.7;;
52342;SDS011;38277;51.972;4.624;2023-02-22T09:45:21;31.7;;;17.5;;
52342;SDS011;38277;51.972;4.624;2023-02-22T09:49:50;29.7;;;18.2;;
52342;SDS011;38277;51.972;4.624;2023-02-22T09:53:56;28.8;;;16.7;;
52342;SDS011;38277;51.972;4.624;2023-02-22T09:58:21;30.8;;;17.0;;
52342;SDS011;38277;51.972;4.624;2023-02-22T10:03:21;29.0;;;16.3;;
52342;SDS011;38277;51.972;4.624;2023-02-22T10:07:45;29.2;;;17.2;;
52342;SDS011;38277;51.972;4.624;2023-02-22T10:12:08;29.0;;;16.3;;
52342;SDS011;38277;51.972;4.624;2023-02-22T10:17:17;31.4;;;17.0;;
52342;SDS011;38277;51.972;4.624;2023-02-22T10:22:10;35.4;;;19.9;;
52342;SDS011;38277;51.972;4.624;2023-02-22T10:25:45;30.6;;;17.0;;
52342;SDS011;38277;51.972;4.624;2023-02-22T10:29:58;28.1;;;16.7;;
52342;SDS011;38277;51.972;4.624;2023-02-22T10:34:23;29.2;;;17.1;;
52342;SDS011;38277;51.972;4.624;2023-02-22T10:39:06;27.0;;;16.7;;
52342;SDS011;38277;51.972;4.624;2023-02-22T10:43:39;27.5;;;17.1;;
52342;SDS011;38277;51.972;4.624;2023-02-22T10:57:10;28.5;;;15.1;;
52342;SDS011;38277;51.972;4.624;2023-02-22T11:01:34;27.8;;;15.8;;
52342;SDS011;38277;51.972;4.624;2023-02-22T11:05:55;28.4;;;16.5;;
52342;SDS011;38277;51.972;4.624;2023-02-22T11:12:31;25.9;;;15.4;;
52342;SDS011;38277;51.972;4.624;2023-02-22T11:15:48;28.4;;;16.6;;
52342;SDS011;38277;51.972;4.624;2023-02-22T11:20:44;28.5;;;15.6;;
52342;SDS011;38277;51.972;4.624;2023-02-22T11:28:39;27.5;;;16.9;;
52342;SDS011;38277;51.972;4.624;2023-02-22T11:33:35;26.4;;;16.7;;
52342;SDS011;38277;51.972;4.624;2023-02-22T11:38:34;30.5;;;17.2;;
52342;SDS011;38277;51.972;4.624;2023-02-22T11:43:27;26.7;;;15.8;;
52342;SDS011;38277;51.972;4.624;2023-02-22T11:52:43;24.3;;;14.4;;
52342;SDS011;38277;51.972;4.624;2023-02-22T11:57:36;26.7;;;15.2;;
52342;SDS011;38277;51.972;4.624;2023-02-22T12:01:17;25.9;;;17.0;;
52342;SDS011;38277;51.972;4.624;2023-02-22T12:06:10;26.8;;;15.2;;
52342;SDS011;38277;51.972;4.624;2023-02-22T12:10:51;23.6;;;14.3;;
52342;SDS011;38277;51.972;4.624;2023-02-22T12:15:50;24.7;;;14.0;;
52342;SDS011;38277;51.972;4.624;2023-02-22T12:20:23;25.4;;;14.8;;
52342;SDS011;38277;51.972;4.624;2023-02-22T12:23:04;23.5;;;14.3;;
52342;SDS011;38277;51.972;4.624;2023-02-22T12:27:24;27.4;;;15.4;;
52342;SDS011;38277;51.972;4.624;2023-02-22T12:31:42;27.1;;;15.4;;
52342;SDS011;38277;51.972;4.624;2023-02-22T12:36:03;23.4;;;14.5;;
52342;SDS011;38277;51.972;4.624;2023-02-22T12:40:26;27.9;;;15.3;;
52342;SDS011;38277;51.972;4.624;2023-02-22T12:44:58;26.2;;;14.7;;
52342;SDS011;38277;51.972;4.624;2023-02-22T12:53:43;26.6;;;15.7;;
52342;SDS011;38277;51.972;4.624;2023-02-22T12:58:23;26.6;;;16.6;;
52342;SDS011;38277;51.972;4.624;2023-02-22T13:03:01;27.5;;;15.2;;
52342;SDS011;38277;51.972;4.624;2023-02-22T13:12:45;25.4;;;15.5;;
52342;SDS011;38277;51.972;4.624;2023-02-22T13:17:21;27.5;;;16.1;;
52342;SDS011;38277;51.972;4.624;2023-02-22T13:22:25;27.8;;;16.8;;
52342;SDS011;38277;51.972;4.624;2023-02-22T13:30:03;26.5;;;15.4;;
52342;SDS011;38277;51.972;4.624;2023-02-22T13:35:22;28.7;;;16.5;;
52342;SDS011;38277;51.972;4.624;2023-02-22T13:40:47;27.4;;;16.1;;
52342;SDS011;38277;51.972;4.624;2023-02-22T13:46:45;26.8;;;16.1;;
52342;SDS011;38277;51.972;4.624;2023-02-22T13:51:52;27.4;;;17.0;;
52342;SDS011;38277;51.972;4.624;2023-02-22T13:54:00;29.5;;;17.8;;
52342;SDS011;38277;51.972;4.624;2023-02-22T13:56:50;26.6;;;15.7;;
52342;SDS011;38277;51.972;4.624;2023-02-22T14:01:45;31.1;;;18.2;;
52342;SDS011;38277;51.972;4.624;2023-02-22T14:05:55;28.8;;;18.3;;
52342;SDS011;38277;51.972;4.624;2023-02-22T14:10:33;29.5;;;16.8;;
52342;SDS011;38277;51.972;4.624;2023-02-22T14:15:19;28.8;;;18.3;;
52342;SDS011;38277;51.972;4.624;2023-02-22T14:19:21;27.7;;;17.5;;
52342;SDS011;38277;51.972;4.624;2023-02-22T14:23:44;26.0;;;16.8;;
52342;SDS011;38277;51.972;4.624;2023-02-22T14:28:37;27.8;;;16.8;;
52342;SDS011;38277;51.972;4.624;2023-02-22T14:33:03;25.1;;;15.9;;
52342;SDS011;38277;51.972;4.624;2023-02-22T14:37:25;26.9;;;16.2;;
52342;SDS011;38277;51.972;4.624;2023-02-22T14:41:59;26.1;;;15.9;;
52342;SDS011;38277;51.972;4.624;2023-02-22T14:46:33;27.0;;;16.3;;
52342;SDS011;38277;51.972;4.624;2023-02-22T14:55:24;29.8;;;18.4;;
52342;SDS011;38277;51.972;4.624;2023-02-22T14:59:58;30.4;;;18.2;;
52342;SDS011;38277;51.972;4.624;2023-02-22T15:04:32;26.8;;;16.9;;
52342;SDS011;38277;51.972;4.624;2023-02-22T15:09:28;28.4;;;17.9;;
52342;SDS011;38277;51.972;4.624;2023-02-22T15:13:25;31.3;;;21.1;;
52342;SDS011;38277;51.972;4.624;2023-02-22T15:18:01;32.8;;;20.9;;
52342;SDS011;38277;51.972;4.624;2023-02-22T15:22:40;36.0;;;23.0;;
52342;SDS011;38277;51.972;4.624;2023-02-22T15:31:32;37.2;;;23.7;;
52342;SDS011;38277;51.972;4.624;2023-02-22T15:35:51;34.8;;;24.2;;
52342;SDS011;38277;51.972;4.624;2023-02-22T15:40:27;40.5;;;27.0;;
52342;SDS011;38277;51.972;4.624;2023-02-22T15:45:01;41.2;;;28.6;;
52342;SDS011;38277;51.972;4.624;2023-02-22T15:49:18;43.1;;;28.2;;
52342;SDS011;38277;51.972;4.624;2023-02-22T15:53:54;43.7;;;29.5;;
52342;SDS011;38277;51.972;4.624;2023-02-22T15:58:22;41.6;;;28.5;;
52342;SDS011;38277;51.972;4.624;2023-02-22T16:02:55;43.5;;;28.9;;
52342;SDS011;38277;51.972;4.624;2023-02-22T16:07:37;45.7;;;30.5;;
52342;SDS011;38277;51.972;4.624;2023-02-22T16:12:09;55.0;;;35.4;;
52342;SDS011;38277;51.972;4.624;2023-02-22T16:16:32;61.0;;;40.1;;
52342;SDS011;38277;51.972;4.624;2023-02-22T16:21:09;64.1;;;39.7;;
52342;SDS011;38277;51.972;4.624;2023-02-22T16:25:36;79.0;;;49.4;;
52342;SDS011;38277;51.972;4.624;2023-02-22T16:30:00;72.7;;;42.4;;
52342;SDS011;38277;51.972;4.624;2023-02-22T16:34:26;73.1;;;45.2;;
52342;SDS011;38277;51.972;4.624;2023-02-22T16:38:50;69.8;;;45.0;;
52342;SDS011;38277;51.972;4.624;2023-02-22T16:43:27;79.9;;;51.1;;
52342;SDS011;38277;51.972;4.624;2023-02-22T16:47:57;84.6;;;52.2;;
52342;SDS011;38277;51.972;4.624;2023-02-22T16:57:00;69.6;;;44.1;;
52342;SDS011;38277;51.972;4.624;2023-02-22T17:01:19;72.5;;;44.4;;
52342;SDS011;38277;51.972;4.624;2023-02-22T17:05:59;65.8;;;41.4;;
52342;SDS011;38277;51.972;4.624;2023-02-22T17:10:13;67.3;;;41.9;;
52342;SDS011;38277;51.972;4.624;2023-02-22T17:16:48;66.7;;;41.0;;
52342;SDS011;38277;51.972;4.624;2023-02-22T17:20:06;60.5;;;39.2;;
52342;SDS011;38277;51.972;4.624;2023-02-22T17:25:04;56.0;;;35.2;;
52342;SDS011;38277;51.972;4.624;2023-02-22T17:32:57;58.7;;;35.4;;
52342;SDS011;38277;51.972;4.624;2023-02-22T17:39:31;61.4;;;37.3;;
52342;SDS011;38277;51.972;4.624;2023-02-22T17:42:50;56.3;;;34.8;;
52342;SDS011;38277;51.972;4.624;2023-02-22T17:47:44;53.7;;;34.5;;
52342;SDS011;38277;51.972;4.624;2023-02-22T17:55:20;56.9;;;36.3;;
52342;SDS011;38277;51.972;4.624;2023-02-22T18:01:55;50.7;;;32.9;;
52342;SDS011;38277;51.972;4.624;2023-02-22T18:05:13;49.4;;;31.8;;
52342;SDS011;38277;51.972;4.624;2023-02-22T18:08:59;51.8;;;32.9;;
52342;SDS011;38277;51.972;4.624;2023-02-22T18:13:37;53.8;;;34.3;;
52342;SDS011;38277;51.972;4.624;2023-02-22T18:17:58;53.5;;;32.5;;
52342;SDS011;38277;51.972;4.624;2023-02-22T18:22:24;49.1;;;32.7;;
52342;SDS011;38277;51.972;4.624;2023-02-22T18:27:02;54.0;;;33.1;;
52342;SDS011;38277;51.972;4.624;2023-02-22T18:31:18;52.2;;;31.4;;
52342;SDS011;38277;51.972;4.624;2023-02-22T18:35:42;48.1;;;31.1;;
52342;SDS011;38277;51.972;4.624;2023-02-22T18:40:34;55.2;;;33.8;;
52342;SDS011;38277;51.972;4.624;2023-02-22T18:45:02;57.5;;;35.0;;
52342;SDS011;38277;51.972;4.624;2023-02-22T18:49:26;58.2;;;36.9;;
52342;SDS011;38277;51.972;4.624;2023-02-22T18:53:59;57.1;;;37.1;;
52342;SDS011;38277;51.972;4.624;2023-02-22T18:58:37;61.0;;;37.4;;
52342;SDS011;38277;51.972;4.624;2023-02-22T19:03:04;56.5;;;34.2;;
52342;SDS011;38277;51.972;4.624;2023-02-22T19:07:15;58.8;;;35.6;;
52342;SDS011;38277;51.972;4.624;2023-02-22T19:11:43;61.5;;;38.1;;
52342;SDS011;38277;51.972;4.624;2023-02-22T19:21:03;61.8;;;38.7;;
52342;SDS011;38277;51.972;4.624;2023-02-22T19:25:14;59.9;;;38.1;;
52342;SDS011;38277;51.972;4.624;2023-02-22T19:29:50;61.9;;;36.6;;
52342;SDS011;38277;51.972;4.624;2023-02-22T19:34:12;60.1;;;37.0;;
52342;SDS011;38277;51.972;4.624;2023-02-22T19:39:05;63.5;;;38.7;;
52342;SDS011;38277;51.972;4.624;2023-02-22T19:43:38;62.5;;;36.8;;
52342;SDS011;38277;51.972;4.624;2023-02-22T19:48:08;61.3;;;36.2;;
52342;SDS011;38277;51.972;4.624;2023-02-22T19:56:55;57.6;;;33.4;;
52342;SDS011;38277;51.972;4.624;2023-02-22T20:01:31;55.3;;;34.0;;
52342;SDS011;38277;51.972;4.624;2023-02-22T20:05:54;51.3;;;31.6;;
52342;SDS011;38277;51.972;4.624;2023-02-22T20:10:20;61.6;;;36.9;;
52342;SDS011;38277;51.972;4.624;2023-02-22T20:14:50;54.8;;;33.6;;
52342;SDS011;38277;51.972;4.624;2023-02-22T20:19:28;58.7;;;33.8;;
52342;SDS011;38277;51.972;4.624;2023-02-22T20:23:56;58.0;;;34.2;;
52342;SDS011;38277;51.972;4.624;2023-02-22T20:28:37;48.3;;;31.6;;
52342;SDS011;38277;51.972;4.624;2023-02-22T20:34:38;55.7;;;34.3;;
52342;SDS011;38277;51.972;4.624;2023-02-22T20:37:40;57.0;;;33.1;;
52342;SDS011;38277;51.972;4.624;2023-02-22T20:42:05;52.0;;;32.8;;
52342;SDS011;38277;51.972;4.624;2023-02-22T20:46:17;50.6;;;30.4;;
52342;SDS011;38277;51.972;4.624;2023-02-22T20:55:35;57.9;;;33.2;;
52342;SDS011;38277;51.972;4.624;2023-02-22T20:59:50;52.6;;;32.2;;
52342;SDS011;38277;51.972;4.624;2023-02-22T21:04:30;50.5;;;31.2;;
52342;SDS011;38277;51.972;4.624;2023-02-22T21:08:47;47.2;;;28.3;;
52342;SDS011;38277;51.972;4.624;2023-02-22T21:13:23;51.1;;;30.1;;
52342;SDS011;38277;51.972;4.624;2023-02-22T21:18:07;51.0;;;31.5;;
52342;SDS011;38277;51.972;4.624;2023-02-22T21:22:37;52.4;;;30.3;;
52342;SDS011;38277;51.972;4.624;2023-02-22T21:35:47;45.8;;;26.9;;
52342;SDS011;38277;51.972;4.624;2023-02-22T21:40:19;47.3;;;27.0;;
52342;SDS011;38277;51.972;4.624;2023-02-22T21:45:02;51.0;;;30.5;;
52342;SDS011;38277;51.972;4.624;2023-02-22T21:49:36;42.6;;;25.8;;
52342;SDS011;38277;51.972;4.624;2023-02-22T21:53:42;43.9;;;25.9;;
52342;SDS011;38277;51.972;4.624;2023-02-22T21:58:18;45.8;;;28.1;;
52342;SDS011;38277;51.972;4.624;2023-02-22T22:02:42;49.9;;;29.3;;
52342;SDS011;38277;51.972;4.624;2023-02-22T22:07:19;49.4;;;28.5;;
52342;SDS011;38277;51.972;4.624;2023-02-22T22:12:00;52.3;;;31.3;;
52342;SDS011;38277;51.972;4.624;2023-02-22T22:16:31;44.2;;;26.4;;
52342;SDS011;38277;51.972;4.624;2023-02-22T22:21:05;51.2;;;29.8;;
52342;SDS011;38277;51.972;4.624;2023-02-22T22:25:39;43.8;;;25.2;;
52342;SDS011;38277;51.972;4.624;2023-02-22T22:30:10;49.2;;;29.2;;
52342;SDS011;38277;51.972;4.624;2023-02-22T22:34:21;47.7;;;28.5;;
52342;SDS011;38277;51.972;4.624;2023-02-22T22:38:52;45.7;;;27.4;;
52342;SDS011;38277;51.972;4.624;2023-02-22T22:43:38;43.0;;;25.5;;
52342;SDS011;38277;51.972;4.624;2023-02-22T22:47:48;51.9;;;30.0;;
52342;SDS011;38277;51.972;4.624;2023-02-22T22:52:24;52.2;;;31.2;;
52342;SDS011;38277;51.972;4.624;2023-02-22T22:57:00;51.7;;;29.9;;
52342;SDS011;38277;51.972;4.624;2023-02-22T23:06:01;50.3;;;28.8;;
52342;SDS011;38277;51.972;4.624;2023-02-22T23:10:36;58.2;;;32.6;;
52342;SDS011;38277;51.972;4.624;2023-02-22T23:15:29;48.1;;;27.6;;
52342;SDS011;38277;51.972;4.624;2023-02-22T23:20:25;45.9;;;27.9;;
52342;SDS011;38277;51.972;4.624;2023-02-22T23:25:22;50.2;;;30.0;;
52342;SDS011;38277;51.972;4.624;2023-02-22T23:32:44;45.8;;;26.2;;
52342;SDS011;38277;51.972;4.624;2023-02-22T23:37:40;46.6;;;27.2;;
52342;SDS011;38277;51.972;4.624;2023-02-22T23:42:36;41.8;;;25.0;;
52342;SDS011;38277;51.972;4.624;2023-02-22T23:49:11;42.9;;;25.1;;
52342;SDS011;38277;51.972;4.624;2023-02-22T23:52:28;42.3;;;25.0;;
